Time;durP1;ratioP1;P1;durP2;ratioP2;P2;SDS_P1;SDS_P2;PMS_P1;PMS_P2;Temp;Humidity;BMP_temperature;BMP_pressure;BME280_temperature;BME280_humidity;BME280_pressure;Samples;Min_cycle;Max_cycle;Signal;HPM_P1;HPM_P2
2021/04/05 00:01:13;;;;;;;65.47;23.87;;;1.50;99.90;;;;;;5077388;28;20183;-91
2021/04/05 00:03:39;;;;;;;22.40;11.20;;;1.50;99.90;;;;;;5076629;28;20535;-90
2021/04/05 00:06:05;;;;;;;32.77;14.43;;;1.50;99.90;;;;;;5083749;28;20275;-92
2021/04/05 00:08:31;;;;;;;27.10;10.87;;;1.50;99.90;;;;;;5094720;28;20680;-92
2021/04/05 00:10:57;;;;;;;20.87;9.70;;;1.50;99.90;;;;;;5093888;28;20267;-92
2021/04/05 00:13:29;;;;;;;19.10;10.13;;;1.50;99.90;;;;;;5092863;28;20174;-92
2021/04/05 00:15:56;;;;;;;24.80;12.43;;;1.40;99.90;;;;;;5094004;28;20251;-90
2021/04/05 00:18:24;;;;;;;22.60;10.83;;;1.40;99.90;;;;;;5094245;28;20178;-90
2021/04/05 00:20:54;;;;;;;22.13;10.73;;;1.40;99.90;;;;;;5093697;28;20529;-91
2021/04/05 00:23:20;;;;;;;37.63;16.40;;;1.40;99.90;;;;;;5094712;28;20169;-92
2021/04/05 00:25:47;;;;;;;27.37;12.23;;;1.40;99.90;;;;;;5095364;28;20574;-91
2021/04/05 00:28:12;;;;;;;43.37;18.00;;;1.40;99.90;;;;;;5095112;28;20197;-90
2021/04/05 00:30:39;;;;;;;61.30;25.87;;;1.30;99.90;;;;;;5095196;28;20255;-91
2021/04/05 00:33:05;;;;;;;46.47;20.70;;;1.40;99.90;;;;;;5094713;28;20181;-91
2021/04/05 00:35:33;;;;;;;24.47;13.20;;;1.30;99.90;;;;;;5093440;28;20171;-89
2021/04/05 00:38:01;;;;;;;38.03;16.27;;;1.30;99.90;;;;;;5096429;28;20173;-91
2021/04/05 00:40:34;;;;;;;80.60;27.23;;;1.30;99.90;;;;;;5092912;28;20212;-90
2021/04/05 00:43:02;;;;;;;41.73;16.70;;;1.30;99.90;;;;;;5093905;28;20170;-89
2021/04/05 00:45:29;;;;;;;49.33;19.67;;;1.30;99.90;;;;;;5094403;28;20174;-90
2021/04/05 00:47:55;;;;;;;58.10;20.97;;;1.30;99.90;;;;;;5093713;28;20623;-92
2021/04/05 00:50:42;;;;;;;33.83;15.57;;;1.20;99.90;;;;;;5095408;28;20188;-91
2021/04/05 00:53:09;;;;;;;26.20;11.27;;;1.30;99.90;;;;;;5094833;28;20580;-92
2021/04/05 00:55:37;;;;;;;74.60;26.40;;;1.30;99.90;;;;;;5094625;28;20199;-91
2021/04/05 00:58:04;;;;;;;42.07;16.20;;;1.30;99.90;;;;;;5096002;28;20170;-91
2021/04/05 01:00:37;;;;;;;79.80;27.67;;;1.30;99.90;;;;;;5092624;28;20214;-91
2021/04/05 01:03:03;;;;;;;64.37;25.20;;;1.30;99.90;;;;;;5093537;28;20167;-91
2021/04/05 01:05:29;;;;;;;30.10;12.63;;;1.30;99.90;;;;;;5092502;28;20184;-91
2021/04/05 01:07:56;;;;;;;21.97;9.97;;;1.20;99.90;;;;;;5075001;28;20188;-92
2021/04/05 01:10:23;;;;;;;20.23;10.63;;;1.30;99.90;;;;;;5058069;28;20186;-89
2021/04/05 01:12:49;;;;;;;19.00;10.33;;;1.30;99.90;;;;;;5058231;28;20273;-91
2021/04/05 01:15:15;;;;;;;23.80;10.20;;;1.30;99.90;;;;;;5075106;28;20270;-91
2021/04/05 01:17:41;;;;;;;15.67;8.50;;;1.30;99.90;;;;;;5074836;28;20656;-90
2021/04/05 01:20:10;;;;;;;17.03;8.20;;;1.30;99.90;;;;;;5074877;28;20177;-90
2021/04/05 01:22:36;;;;;;;18.43;9.47;;;1.30;99.90;;;;;;5074523;28;20174;-91
2021/04/05 01:25:06;;;;;;;17.83;8.90;;;1.30;99.90;;;;;;5057918;28;20230;-91
2021/04/05 01:27:33;;;;;;;22.93;9.67;;;1.30;99.90;;;;;;5059343;28;20549;-92
2021/04/05 01:29:59;;;;;;;23.53;10.77;;;1.30;99.90;;;;;;5062612;28;20240;-92
2021/04/05 01:32:24;;;;;;;19.13;9.53;;;1.30;99.90;;;;;;5078688;28;20178;-88
2021/04/05 01:34:50;;;;;;;19.50;9.80;;;1.30;99.90;;;;;;5097185;28;20656;-91
2021/04/05 01:37:16;;;;;;;16.03;9.23;;;1.30;99.90;;;;;;5078898;28;20192;-92
2021/04/05 01:39:41;;;;;;;16.40;7.83;;;1.30;99.90;;;;;;5061942;28;20178;-92
2021/04/05 01:42:07;;;;;;;20.57;8.53;;;1.30;99.90;;;;;;5097456;28;20704;-93
2021/04/05 01:44:38;;;;;;;18.03;8.33;;;1.30;99.90;;;;;;5078393;28;20176;-92
2021/04/05 01:47:04;;;;;;;19.30;9.03;;;1.20;99.90;;;;;;5097072;28;20395;-92
2021/04/05 01:49:30;;;;;;;22.57;9.90;;;1.20;99.90;;;;;;5096637;28;20210;-94
2021/04/05 01:51:56;;;;;;;13.47;7.70;;;1.20;99.90;;;;;;5062220;28;20702;-93
2021/04/05 01:54:23;;;;;;;17.47;7.70;;;1.20;99.90;;;;;;5079068;28;20182;-93
2021/04/05 01:56:49;;;;;;;15.97;8.47;;;1.20;99.90;;;;;;5096919;28;20224;-93
2021/04/05 01:59:16;;;;;;;14.37;7.23;;;1.30;99.90;;;;;;5096716;28;20169;-92
2021/04/05 02:01:42;;;;;;;21.17;9.00;;;1.20;99.90;;;;;;5096818;28;20182;-93
2021/04/05 02:04:09;;;;;;;16.40;8.37;;;1.20;99.90;;;;;;5078524;28;20279;-93
2021/04/05 02:06:36;;;;;;;14.80;7.93;;;1.20;99.90;;;;;;5069185;28;20602;-93
2021/04/05 02:09:05;;;;;;;20.73;8.57;;;1.20;99.90;;;;;;5096829;28;20178;-92
2021/04/05 02:11:36;;;;;;;17.73;8.13;;;1.20;99.90;;;;;;5096632;28;20223;-92
2021/04/05 02:14:04;;;;;;;15.77;7.80;;;1.10;99.90;;;;;;5096575;28;20271;-91
2021/04/05 02:16:30;;;;;;;16.90;8.87;;;1.20;99.90;;;;;;5094988;28;20182;-89
2021/04/05 02:18:57;;;;;;;14.87;7.57;;;1.10;99.90;;;;;;5096317;28;20548;-92
2021/04/05 02:21:25;;;;;;;17.83;8.60;;;1.10;99.90;;;;;;5061348;28;20183;-91
2021/04/05 02:23:55;;;;;;;15.37;7.00;;;1.10;99.90;;;;;;5094518;28;20612;-92
2021/04/05 02:26:24;;;;;;;15.40;7.43;;;1.10;99.90;;;;;;5095917;28;20206;-91
2021/04/05 02:28:52;;;;;;;18.40;7.80;;;1.20;99.90;;;;;;5095714;28;20178;-92
2021/04/05 02:31:21;;;;;;;20.20;8.83;;;1.10;99.90;;;;;;5078182;28;20648;-91
2021/04/05 02:33:50;;;;;;;21.53;10.00;;;1.10;99.90;;;;;;5095470;28;20227;-92
2021/04/05 02:36:27;;;;;;;18.30;9.13;;;1.20;99.90;;;;;;5096147;28;20269;-92
2021/04/05 02:39:06;;;;;;;15.63;7.80;;;1.20;99.90;;;;;;5094299;28;20176;-92
2021/04/05 02:41:34;;;;;;;16.90;8.20;;;1.10;99.90;;;;;;5095164;28;20181;-92
2021/04/05 02:44:01;;;;;;;16.27;8.87;;;1.10;99.90;;;;;;5095740;28;20361;-92
2021/04/05 02:46:30;;;;;;;15.87;8.43;;;1.10;99.90;;;;;;5095913;28;20575;-93
2021/04/05 02:48:59;;;;;;;19.30;8.77;;;1.10;99.90;;;;;;5095412;28;20182;-92
2021/04/05 02:51:25;;;;;;;16.10;9.07;;;1.10;99.90;;;;;;5094691;28;20201;-92
2021/04/05 02:53:59;;;;;;;17.30;9.80;;;1.00;99.90;;;;;;5095466;28;20255;-93
2021/04/05 02:56:26;;;;;;;16.87;8.90;;;1.00;99.90;;;;;;5095972;28;20170;-91
2021/04/05 02:58:53;;;;;;;19.23;10.20;;;1.00;99.90;;;;;;5093835;28;20666;-91
2021/04/05 03:01:20;;;;;;;19.13;10.17;;;1.00;99.90;;;;;;5095572;28;20307;-92
2021/04/05 03:03:47;;;;;;;15.77;9.57;;;1.00;99.90;;;;;;5094987;28;20176;-92
2021/04/05 03:06:19;;;;;;;22.57;10.70;;;1.00;99.90;;;;;;5077397;28;20567;-92
2021/04/05 03:08:46;;;;;;;26.87;13.07;;;1.00;99.90;;;;;;5093506;28;20262;-91
2021/04/05 03:11:14;;;;;;;17.73;10.67;;;0.90;99.90;;;;;;5095259;28;20661;-92
2021/04/05 03:13:40;;;;;;;21.90;11.27;;;0.90;99.90;;;;;;5095245;28;20178;-92
2021/04/05 03:16:18;;;;;;;21.10;10.47;;;0.90;99.90;;;;;;5094854;28;20290;-92
2021/04/05 03:18:45;;;;;;;18.63;10.23;;;0.90;99.90;;;;;;5095596;28;20172;-92
2021/04/05 03:21:12;;;;;;;22.00;10.97;;;1.00;99.90;;;;;;5096968;28;20173;-92
2021/04/05 03:23:40;;;;;;;25.40;11.83;;;0.90;99.90;;;;;;5093856;28;20228;-90
2021/04/05 03:26:06;;;;;;;22.20;10.70;;;0.90;99.90;;;;;;5094799;28;20206;-91
2021/04/05 03:28:32;;;;;;;24.30;11.00;;;1.00;99.90;;;;;;5094961;28;20191;-90
2021/04/05 03:31:16;;;;;;;19.73;11.30;;;0.90;99.90;;;;;;5093063;28;20182;-90
2021/04/05 03:33:54;;;;;;;25.03;12.07;;;0.90;99.90;;;;;;5094692;28;20172;-91
2021/04/05 03:36:42;;;;;;;21.67;11.43;;;0.90;99.90;;;;;;5094528;28;20185;-89
2021/04/05 03:39:10;;;;;;;26.67;12.63;;;0.90;99.90;;;;;;5094366;28;20262;-93
2021/04/05 03:41:57;;;;;;;25.67;12.50;;;0.90;99.90;;;;;;5060587;28;20184;-91
2021/04/05 03:44:58;;;;;;;21.40;12.03;;;0.90;99.90;;;;;;5096184;28;20195;-93
2021/04/05 03:47:31;;;;;;;22.53;11.50;;;0.90;99.90;;;;;;5095558;28;20224;-91
2021/04/05 03:50:09;;;;;;;25.97;11.73;;;0.90;99.90;;;;;;5093671;28;20263;-90
2021/04/05 03:52:40;;;;;;;28.80;13.40;;;0.90;99.90;;;;;;5094414;28;20173;-89
2021/04/05 03:55:09;;;;;;;22.57;11.87;;;0.90;99.90;;;;;;5094090;28;20176;-91
2021/04/05 03:57:44;;;;;;;23.20;12.10;;;0.90;99.90;;;;;;5094187;28;20242;-91
2021/04/05 04:00:13;;;;;;;24.07;12.80;;;0.90;99.90;;;;;;5094798;28;20192;-93
2021/04/05 04:02:46;;;;;;;26.87;12.47;;;0.90;99.90;;;;;;5092945;28;20175;-92
2021/04/05 04:10:23;;;;;;;39.77;26.17;;;0.90;99.90;;;;;;5094058;28;20473;-91
2021/04/05 04:12:51;;;;;;;38.03;26.97;;;0.90;99.90;;;;;;5093701;28;20179;-91
2021/04/05 04:15:17;;;;;;;31.13;19.17;;;0.90;99.90;;;;;;5075935;28;20206;-91
2021/04/05 04:17:47;;;;;;;34.17;19.10;;;0.90;99.90;;;;;;5075685;28;20273;-92
2021/04/05 04:20:15;;;;;;;41.20;21.03;;;1.00;99.90;;;;;;5075426;28;20219;-92
2021/04/05 04:22:43;;;;;;;42.13;19.70;;;0.90;99.90;;;;;;5093850;28;20173;-92
2021/04/05 04:25:09;;;;;;;41.27;22.53;;;1.00;99.90;;;;;;5075699;28;20178;-91
2021/04/05 04:27:36;;;;;;;31.23;15.83;;;1.00;99.90;;;;;;5058851;28;20215;-91
2021/04/05 04:30:04;;;;;;;27.07;15.17;;;1.00;99.90;;;;;;5093351;28;20190;-92
2021/04/05 04:32:30;;;;;;;34.30;18.57;;;1.10;99.90;;;;;;5093476;28;20653;-91
2021/04/05 04:34:56;;;;;;;28.57;13.43;;;1.10;99.90;;;;;;5058446;28;20193;-91
2021/04/05 04:37:22;;;;;;;29.53;13.93;;;1.20;99.90;;;;;;5093546;28;20193;-92
2021/04/05 04:39:48;;;;;;;28.03;14.87;;;1.30;99.90;;;;;;5075291;28;20620;-89
2021/04/05 04:42:14;;;;;;;25.33;14.23;;;1.30;99.90;;;;;;5092074;28;20200;-91
2021/04/05 04:44:40;;;;;;;28.60;13.80;;;1.30;99.90;;;;;;5074806;28;20652;-90
2021/04/05 04:47:06;;;;;;;56.83;22.53;;;1.40;99.90;;;;;;5094000;28;20225;-90
2021/04/05 04:49:31;;;;;;;40.53;17.07;;;1.50;99.90;;;;;;5086174;28;20186;-92
2021/04/05 04:51:57;;;;;;;58.73;23.77;;;1.50;99.90;;;;;;5082497;28;20197;-91
2021/04/05 04:54:23;;;;;;;37.03;15.20;;;1.70;99.90;;;;;;5100563;28;20192;-91
2021/04/05 04:56:48;;;;;;;24.27;13.37;;;1.70;99.90;;;;;;5083770;28;20186;-91
2021/04/05 04:59:15;;;;;;;26.83;12.37;;;1.80;99.90;;;;;;5104870;28;20193;-91
2021/04/05 05:01:44;;;;;;;24.27;12.10;;;1.80;99.90;;;;;;5090375;28;20188;-93
2021/04/05 05:04:10;;;;;;;23.87;12.47;;;1.90;99.90;;;;;;5114515;28;20186;-91
2021/04/05 05:06:37;;;;;;;20.27;11.13;;;2.00;99.90;;;;;;5095655;28;20649;-91
2021/04/05 05:09:04;;;;;;;22.77;12.10;;;2.10;99.90;;;;;;5073868;28;20183;-91
2021/04/05 05:11:30;;;;;;;20.03;10.53;;;2.20;99.90;;;;;;5072913;28;20188;-90
2021/04/05 05:13:57;;;;;;;18.90;10.30;;;2.30;99.90;;;;;;5054846;28;20573;-92
2021/04/05 05:16:26;;;;;;;24.97;11.10;;;2.40;99.90;;;;;;5072237;28;20214;-91
2021/04/05 05:18:57;;;;;;;23.37;10.60;;;2.40;99.90;;;;;;5068184;28;20196;-90
2021/04/05 05:21:32;;;;;;;21.07;11.13;;;2.50;99.90;;;;;;5031053;28;20190;-90
2021/04/05 05:24:04;;;;;;;19.43;10.50;;;2.60;99.90;;;;;;5066420;28;20197;-91
2021/04/05 05:26:32;;;;;;;21.80;10.70;;;2.60;99.90;;;;;;5070648;28;20663;-90
2021/04/05 05:29:04;;;;;;;19.63;10.43;;;2.70;99.90;;;;;;5078762;28;20209;-90
2021/04/05 05:31:29;;;;;;;23.67;10.20;;;2.70;99.90;;;;;;5073258;28;20700;-92
2021/04/05 05:33:55;;;;;;;23.23;9.90;;;2.80;99.90;;;;;;5038482;28;20266;-91
2021/04/05 05:36:21;;;;;;;21.73;11.03;;;2.90;99.90;;;;;;5052096;28;20302;-89
2021/04/05 05:38:47;;;;;;;15.97;9.03;;;3.00;99.90;;;;;;5051881;28;20215;-90
2021/04/05 05:41:24;;;;;;;18.67;10.63;;;3.10;99.90;;;;;;5072199;28;20200;-90
2021/04/05 05:44:08;;;;;;;17.93;8.53;;;3.20;99.90;;;;;;5067791;28;20650;-92
2021/04/05 05:46:53;;;;;;;16.63;6.80;;;3.30;99.90;;;;;;5052669;28;20692;-94
2021/04/05 05:49:26;;;;;;;15.60;8.47;;;3.30;99.90;;;;;;5070217;28;20196;-93
2021/04/05 05:52:05;;;;;;;17.70;8.90;;;3.30;99.90;;;;;;5070318;28;20179;-93
2021/04/05 05:54:36;;;;;;;23.07;10.67;;;3.40;99.90;;;;;;5067724;28;20214;-91
2021/04/05 05:57:26;;;;;;;18.73;8.90;;;3.50;99.90;;;;;;5051962;28;20191;-91
2021/04/05 06:00:06;;;;;;;16.93;7.80;;;3.50;99.90;;;;;;5044838;28;20868;-92
2021/04/05 06:03:11;;;;;;;15.00;7.80;;;3.60;99.90;;;;;;5052171;28;20184;-91
2021/04/05 06:05:47;;;;;;;18.73;9.33;;;3.70;99.90;;;;;;5066864;28;20196;-91
2021/04/05 06:08:46;;;;;;;14.87;7.20;;;3.80;99.90;;;;;;5051131;28;20218;-90
2021/04/05 06:11:30;;;;;;;18.80;7.33;;;3.80;99.90;;;;;;5032510;28;20192;-92
2021/04/05 06:14:11;;;;;;;17.63;8.00;;;3.80;99.90;;;;;;5069335;28;20785;-90
2021/04/05 06:16:54;;;;;;;15.30;7.23;;;3.90;99.90;;;;;;5069220;28;20242;-91
2021/04/05 06:19:45;;;;;;;13.43;7.57;;;4.00;99.90;;;;;;5056137;28;20275;-90
2021/04/05 06:22:38;;;;;;;21.20;8.97;;;4.10;99.90;;;;;;5071368;28;20313;-89
2021/04/05 06:25:10;;;;;;;11.63;5.50;;;4.30;99.90;;;;;;5055523;28;20197;-91
2021/04/05 06:28:10;;;;;;;13.77;7.30;;;4.40;99.70;;;;;;5073699;28;20207;-89
2021/04/05 06:31:06;;;;;;;10.73;6.50;;;4.30;98.90;;;;;;5055079;28;20602;-89
2021/04/05 06:33:46;;;;;;;8.33;5.60;;;4.40;99.70;;;;;;5071968;28;20175;-90
2021/04/05 06:36:17;;;;;;;12.90;6.43;;;4.50;97.50;;;;;;5074597;28;20190;-91
2021/04/05 06:38:54;;;;;;;11.37;6.80;;;4.60;97.60;;;;;;5075854;28;20203;-91
2021/04/05 06:41:37;;;;;;;10.50;5.77;;;4.60;97.20;;;;;;5059275;28;20209;-88
2021/04/05 06:44:36;;;;;;;15.40;7.33;;;4.80;96.60;;;;;;5054973;28;20265;-90
2021/04/05 06:47:07;;;;;;;12.27;6.60;;;4.90;96.40;;;;;;5073870;28;20304;-88
2021/04/05 06:50:18;;;;;;;11.67;6.70;;;5.00;95.90;;;;;;5056285;28;20214;-89
2021/04/05 06:52:58;;;;;;;11.47;7.47;;;5.00;94.80;;;;;;4992368;28;20193;-87
2021/04/05 06:55:52;;;;;;;12.13;6.17;;;5.10;94.90;;;;;;4982706;28;20193;-88
2021/04/05 06:58:18;;;;;;;13.07;6.60;;;5.10;94.50;;;;;;5054550;28;20289;-88
2021/04/05 07:00:53;;;;;;;15.47;7.03;;;5.10;94.80;;;;;;5073070;28;20189;-88
2021/04/05 07:03:49;;;;;;;10.90;6.73;;;5.20;96.10;;;;;;5055471;28;20192;-90
2021/04/05 07:06:34;;;;;;;11.47;6.33;;;5.40;93.10;;;;;;5063290;28;20259;-90
2021/04/05 07:09:13;;;;;;;13.10;6.60;;;5.40;93.30;;;;;;5098599;28;20189;-89
2021/04/05 07:11:49;;;;;;;8.03;5.60;;;5.70;94.40;;;;;;5090591;28;20188;-88
2021/04/05 07:14:57;;;;;;;14.40;6.57;;;5.70;91.50;;;;;;5089917;28;20186;-88
2021/04/05 07:17:38;;;;;;;12.67;6.70;;;5.80;92.70;;;;;;5085931;28;20210;-90
2021/04/05 07:20:28;;;;;;;13.37;6.50;;;6.00;91.10;;;;;;5097141;28;21413;-87
2021/04/05 07:23:26;;;;;;;13.67;6.30;;;5.90;90.80;;;;;;5098453;28;20181;-88
2021/04/05 07:26:19;;;;;;;11.93;6.47;;;5.80;90.70;;;;;;5093872;28;20198;-89
2021/04/05 07:28:53;;;;;;;11.47;6.90;;;5.80;90.90;;;;;;5098846;28;20193;-88
2021/04/05 07:32:01;;;;;;;11.87;5.23;;;5.90;90.40;;;;;;5088422;28;20201;-88
2021/04/05 07:34:32;;;;;;;9.90;6.10;;;5.90;90.20;;;;;;5090772;28;20177;-89
2021/04/05 07:37:04;;;;;;;10.77;7.00;;;6.00;89.90;;;;;;5087353;28;20681;-88
2021/04/05 07:39:38;;;;;;;11.40;5.40;;;6.20;90.10;;;;;;5089671;28;20185;-90
2021/04/05 07:42:19;;;;;;;16.90;7.20;;;6.40;87.60;;;;;;5101847;28;20173;-88
2021/04/05 07:44:57;;;;;;;14.70;7.37;;;6.50;87.70;;;;;;5092771;28;20184;-86
2021/04/05 07:47:49;;;;;;;12.23;6.97;;;6.70;87.50;;;;;;5084461;28;20224;-88
2021/04/05 07:50:48;;;;;;;8.07;5.70;;;6.80;82.70;;;;;;5092949;28;20192;-89
2021/04/05 07:53:20;;;;;;;15.00;6.20;;;6.70;82.80;;;;;;5089149;28;20272;-87
2021/04/05 07:55:48;;;;;;;5.23;3.77;;;6.80;82.70;;;;;;5091683;28;20175;-87
2021/04/05 07:58:27;;;;;;;12.70;6.70;;;6.70;81.10;;;;;;5074746;28;20181;-86
2021/04/05 08:01:37;;;;;;;11.17;6.90;;;6.70;83.30;;;;;;5092851;28;20659;-87
2021/04/05 08:04:21;;;;;;;14.23;6.10;;;6.90;84.40;;;;;;5043761;28;20194;-86
2021/04/05 08:06:57;;;;;;;14.37;6.80;;;7.00;82.20;;;;;;5077892;28;20230;-87
2021/04/05 08:09:29;;;;;;;7.30;4.90;;;7.20;81.20;;;;;;5072398;28;20548;-88
2021/04/05 08:12:13;;;;;;;9.77;5.20;;;7.40;78.50;;;;;;5073591;28;20232;-87
2021/04/05 08:14:57;;;;;;;11.37;6.03;;;7.40;78.20;;;;;;5053263;28;20179;-87
2021/04/05 08:17:55;;;;;;;12.97;5.40;;;7.60;79.70;;;;;;5053533;28;20191;-89
2021/04/05 08:20:34;;;;;;;8.50;4.97;;;7.70;77.20;;;;;;5071043;28;20786;-89
2021/04/05 08:23:11;;;;;;;10.83;4.90;;;7.80;76.70;;;;;;5071029;28;20181;-88
2021/04/05 08:26:00;;;;;;;8.60;4.87;;;7.80;74.60;;;;;;5071276;28;20213;-89
2021/04/05 08:28:48;;;;;;;9.40;5.10;;;8.00;75.00;;;;;;5054590;28;20667;-90
2021/04/05 08:31:32;;;;;;;9.87;5.10;;;8.10;75.00;;;;;;5072025;28;20598;-87
2021/04/05 08:34:35;;;;;;;8.23;4.97;;;8.20;73.00;;;;;;5072594;28;20544;-87
2021/04/05 08:37:21;;;;;;;6.73;4.70;;;8.40;72.40;;;;;;5053925;28;20545;-88
2021/04/05 08:40:14;;;;;;;7.95;5.47;;;8.40;71.20;;;;;;5053135;28;20975;-87
2021/04/05 08:43:17;;;;;;;7.00;4.00;;;8.40;70.20;;;;;;5055179;28;20232;-88
2021/04/05 08:45:48;;;;;;;9.37;4.50;;;8.50;68.50;;;;;;5062269;28;20174;-88
2021/04/05 08:48:18;;;;;;;11.53;6.00;;;8.60;67.80;;;;;;5052662;28;20205;-90
2021/04/05 08:50:51;;;;;;;11.53;5.00;;;8.70;69.30;;;;;;5063968;28;20194;-89
2021/04/05 08:53:19;;;;;;;5.97;3.80;;;8.80;67.90;;;;;;5054882;28;20194;-89
2021/04/05 08:55:47;;;;;;;8.87;4.63;;;9.00;66.50;;;;;;5073144;28;20182;-88
2021/04/05 08:58:24;;;;;;;7.80;4.47;;;9.10;68.00;;;;;;5073209;28;20652;-89
2021/04/05 09:00:54;;;;;;;11.80;5.67;;;9.20;67.50;;;;;;5078535;28;20170;-89
2021/04/05 09:03:28;;;;;;;6.47;4.37;;;9.30;68.40;;;;;;5077810;28;20665;-89
2021/04/05 09:05:55;;;;;;;10.17;5.50;;;9.60;68.10;;;;;;5073581;28;20229;-88
2021/04/05 09:08:24;;;;;;;10.33;4.63;;;9.80;67.30;;;;;;5058820;28;20186;-89
2021/04/05 09:10:52;;;;;;;5.43;3.80;;;10.00;64.00;;;;;;5053411;28;20183;-89
2021/04/05 09:13:32;;;;;;;6.47;4.37;;;9.80;61.90;;;;;;5053670;28;20183;-89
2021/04/05 09:16:35;;;;;;;9.17;3.87;;;9.70;63.60;;;;;;5071974;28;20190;-90
2021/04/05 09:19:30;;;;;;;10.10;4.50;;;9.80;61.30;;;;;;5053595;28;20243;-89
2021/04/05 09:22:17;;;;;;;8.53;4.37;;;9.90;64.00;;;;;;5063754;28;20232;-89
2021/04/05 09:25:17;;;;;;;9.93;4.43;;;10.20;62.50;;;;;;5062385;28;20189;-90
2021/04/05 09:28:19;;;;;;;5.63;3.87;;;10.50;61.20;;;;;;5040438;28;20242;-90
2021/04/05 09:30:55;;;;;;;7.23;3.57;;;10.60;59.30;;;;;;5071727;28;20594;-90
2021/04/05 09:33:41;;;;;;;6.47;3.30;;;10.40;58.10;;;;;;5041988;28;20182;-90
2021/04/05 09:36:16;;;;;;;14.30;4.37;;;10.60;59.60;;;;;;5054615;28;20195;-89
2021/04/05 09:38:54;;;;;;;6.07;3.67;;;10.70;58.50;;;;;;5054649;28;20171;-90
2021/04/05 09:41:59;;;;;;;11.77;4.60;;;10.80;58.10;;;;;;5072959;28;20198;-89
2021/04/05 09:45:02;;;;;;;7.20;4.30;;;10.90;57.50;;;;;;5049364;28;20194;-91
2021/04/05 09:47:50;;;;;;;5.43;3.73;;;11.00;57.20;;;;;;5072640;28;20210;-90
2021/04/05 09:50:46;;;;;;;5.67;3.50;;;11.00;56.40;;;;;;5076666;28;20209;-89
2021/04/05 09:53:49;;;;;;;5.60;3.63;;;11.00;56.90;;;;;;5058745;28;20182;-90
2021/04/05 09:56:20;;;;;;;9.90;3.70;;;11.10;57.30;;;;;;5070296;28;20186;-88
2021/04/05 09:59:00;;;;;;;10.53;4.03;;;11.40;57.50;;;;;;5075658;28;20179;-90
2021/04/05 10:01:29;;;;;;;11.10;4.07;;;11.60;57.60;;;;;;5075906;28;20215;-90
2021/04/05 10:04:28;;;;;;;7.00;3.90;;;11.80;55.70;;;;;;5075708;28;20183;-90
2021/04/05 10:06:57;;;;;;;5.77;3.87;;;12.00;54.90;;;;;;5034656;28;20257;-90
2021/04/05 10:09:29;;;;;;;7.03;4.13;;;11.80;54.20;;;;;;5095966;28;20658;-90
2021/04/05 10:11:55;;;;;;;7.87;3.67;;;11.60;54.80;;;;;;5095522;28;20265;-90
2021/04/05 10:14:23;;;;;;;7.80;3.90;;;11.60;56.50;;;;;;5094400;28;20542;-91
2021/04/05 10:16:53;;;;;;;7.53;3.97;;;11.70;55.70;;;;;;5095565;28;20217;-89
2021/04/05 10:19:40;;;;;;;6.37;3.53;;;11.60;54.80;;;;;;5092010;28;20318;-89
2021/04/05 10:22:18;;;;;;;7.30;3.83;;;11.70;55.30;;;;;;5093800;28;20179;-89
2021/04/05 10:24:46;;;;;;;9.03;3.70;;;11.80;55.80;;;;;;5095032;28;20264;-90
2021/04/05 10:27:15;;;;;;;10.97;3.70;;;11.90;54.40;;;;;;5094006;28;20218;-88
2021/04/05 10:29:43;;;;;;;9.80;3.90;;;12.00;55.80;;;;;;5095279;28;20208;-89
2021/04/05 10:32:15;;;;;;;6.75;3.78;;;12.20;53.80;;;;;;5095907;28;20175;-88
2021/04/05 10:34:44;;;;;;;7.40;4.43;;;12.10;54.30;;;;;;5094618;28;20185;-89
2021/04/05 10:37:31;;;;;;;11.00;3.77;;;12.10;54.30;;;;;;5095899;28;20199;-87
2021/04/05 10:39:59;;;;;;;11.07;4.10;;;12.30;54.50;;;;;;5098030;28;20182;-88
2021/04/05 10:42:47;;;;;;;6.63;3.60;;;12.60;56.20;;;;;;5080748;28;20277;-89
2021/04/05 10:45:18;;;;;;;6.10;3.35;;;12.80;53.60;;;;;;5088330;28;20555;-89
2021/04/05 10:47:54;;;;;;;8.40;3.67;;;12.90;53.10;;;;;;5094234;28;20206;-88
2021/04/05 10:50:26;;;;;;;8.65;4.20;;;13.00;54.20;;;;;;5103590;28;21426;-88
2021/04/05 10:52:54;;;;;;;7.13;3.85;;;13.30;54.20;;;;;;5094785;28;20236;-88
2021/04/05 10:55:23;;;;;;;11.45;4.70;;;13.60;53.00;;;;;;5095274;28;20517;-88
2021/04/05 10:58:00;;;;;;;9.88;3.55;;;13.50;52.20;;;;;;5094646;28;20195;-89
2021/04/05 11:00:38;;;;;;;6.97;3.80;;;13.40;52.10;;;;;;5092694;28;20877;-88
2021/04/05 11:03:17;;;;;;;8.70;4.07;;;13.00;52.90;;;;;;5094735;28;20178;-89
2021/04/05 11:05:46;;;;;;;10.07;4.25;;;12.70;54.30;;;;;;5093765;28;20556;-88
2021/04/05 11:08:20;;;;;;;10.52;3.63;;;12.70;55.20;;;;;;5091844;28;20639;-89
2021/04/05 11:10:47;;;;;;;7.03;3.63;;;12.80;53.30;;;;;;5093468;28;20178;-89
2021/04/05 11:13:16;;;;;;;6.28;4.00;;;12.80;53.50;;;;;;5092281;28;20320;-88
2021/04/05 11:15:44;;;;;;;7.25;4.35;;;12.90;53.90;;;;;;5087285;28;20178;-88
2021/04/05 11:18:14;;;;;;;7.35;4.03;;;13.20;54.80;;;;;;5093769;28;20196;-89
2021/04/05 11:20:41;;;;;;;11.90;6.20;;;13.50;53.40;;;;;;5092285;28;20187;-88
2021/04/05 11:23:16;;;;;;;7.43;4.03;;;13.70;53.40;;;;;;5093876;28;20202;-89
2021/04/05 11:25:58;;;;;;;5.93;4.00;;;13.90;52.10;;;;;;5093742;28;20206;-88
2021/04/05 11:28:26;;;;;;;6.15;3.63;;;13.90;51.90;;;;;;5093908;28;20189;-89
2021/04/05 11:31:06;;;;;;;6.28;3.92;;;13.40;52.80;;;;;;5093502;28;20216;-89
2021/04/05 11:33:42;;;;;;;15.93;4.57;;;12.80;53.00;;;;;;5092371;28;20190;-89
2021/04/05 11:36:09;;;;;;;8.88;4.45;;;12.50;53.90;;;;;;5093409;28;20186;-89
2021/04/05 11:38:48;;;;;;;8.25;4.15;;;12.40;54.00;;;;;;5093515;28;20178;-89
2021/04/05 11:41:17;;;;;;;8.10;3.88;;;12.80;55.90;;;;;;5093829;28;20189;-89
2021/04/05 11:43:49;;;;;;;7.53;3.80;;;13.00;53.60;;;;;;5093413;28;20651;-90
2021/04/05 11:46:16;;;;;;;7.30;4.53;;;13.00;53.70;;;;;;5093291;28;20198;-94
2021/04/05 11:48:43;;;;;;;8.05;3.55;;;13.10;53.70;;;;;;5092446;28;20191;-93
2021/04/05 11:51:11;;;;;;;11.32;3.90;;;13.00;52.40;;;;;;5093453;28;20204;-88
2021/04/05 11:53:48;;;;;;;11.13;4.00;;;12.70;53.20;;;;;;5091796;28;20269;-89
2021/04/05 11:56:16;;;;;;;7.68;4.32;;;12.60;53.70;;;;;;5093412;28;20186;-89
2021/04/05 11:58:51;;;;;;;7.57;4.32;;;12.50;53.90;;;;;;5091503;28;20183;-88
2021/04/05 12:01:21;;;;;;;7.90;3.80;;;12.50;54.50;;;;;;5078474;28;20187;-88
2021/04/05 12:03:46;;;;;;;11.63;4.23;;;12.70;54.30;;;;;;5077293;28;20179;-89
2021/04/05 12:06:23;;;;;;;9.23;4.37;;;12.70;54.40;;;;;;5086989;28;20247;-90
2021/04/05 12:08:55;;;;;;;9.60;4.28;;;12.80;54.60;;;;;;5072279;28;20182;-89
2021/04/05 12:11:25;;;;;;;9.18;4.00;;;12.90;55.10;;;;;;5072173;28;20696;-89
2021/04/05 12:13:55;;;;;;;6.13;3.70;;;13.20;53.10;;;;;;5072304;28;20180;-89
2021/04/05 12:16:27;;;;;;;9.25;3.70;;;13.30;53.50;;;;;;5073032;28;20194;-90
2021/04/05 12:18:56;;;;;;;7.78;4.10;;;13.50;53.50;;;;;;5072404;28;20658;-88
2021/04/05 12:21:30;;;;;;;8.73;4.05;;;13.80;52.90;;;;;;5072924;28;20209;-88
2021/04/05 12:23:59;;;;;;;8.63;3.45;;;14.10;51.30;;;;;;5054329;28;20179;-89
2021/04/05 12:26:31;;;;;;;11.68;4.50;;;13.90;50.70;;;;;;5072533;28;20241;-90
2021/04/05 12:29:08;;;;;;;5.25;3.78;;;13.70;51.20;;;;;;5072015;28;20266;-88
2021/04/05 12:31:35;;;;;;;10.10;3.40;;;13.70;51.70;;;;;;5072507;28;20291;-89
2021/04/05 12:34:10;;;;;;;7.70;3.92;;;13.90;52.50;;;;;;5072450;28;20206;-89
2021/04/05 12:36:38;;;;;;;9.07;3.97;;;14.30;50.90;;;;;;5040400;28;20187;-90
2021/04/05 12:39:08;;;;;;;8.18;4.03;;;14.20;50.90;;;;;;5072088;28;20175;-89
2021/04/05 12:41:36;;;;;;;9.85;3.83;;;14.10;51.20;;;;;;5072209;28;20274;-88
2021/04/05 12:44:05;;;;;;;5.20;3.67;;;14.10;51.70;;;;;;5072295;28;20171;-90
2021/04/05 12:46:31;;;;;;;12.02;3.85;;;14.40;50.70;;;;;;5054961;28;20234;-89
2021/04/05 12:49:00;;;;;;;12.23;3.78;;;14.40;50.50;;;;;;5072336;28;20187;-88
2021/04/05 12:51:27;;;;;;;6.32;3.85;;;14.30;50.60;;;;;;5070176;28;20179;-89
2021/04/05 12:54:06;;;;;;;10.20;3.80;;;14.00;51.20;;;;;;5042596;28;20183;-89
2021/04/05 12:56:33;;;;;;;7.88;3.67;;;13.70;50.90;;;;;;5058022;28;20188;-90
2021/04/05 12:59:01;;;;;;;7.22;3.50;;;13.90;51.70;;;;;;5045658;28;20545;-90
2021/04/05 13:01:50;;;;;;;9.63;3.78;;;14.20;50.30;;;;;;5030175;28;20184;-93
2021/04/05 13:04:25;;;;;;;10.82;3.33;;;14.60;50.20;;;;;;5073772;28;20179;-89
2021/04/05 13:07:08;;;;;;;8.43;3.65;;;14.90;48.90;;;;;;5069908;28;20240;-89
2021/04/05 13:10:01;;;;;;;11.77;3.42;;;13.80;49.50;;;;;;5083992;28;20170;-88
2021/04/05 13:12:38;;;;;;;5.85;3.20;;;14.70;49.60;;;;;;5090375;28;20247;-88
2021/04/05 13:15:10;;;;;;;7.28;3.63;;;15.00;48.50;;;;;;5091935;28;20303;-90
2021/04/05 13:17:39;;;;;;;7.18;3.35;;;14.90;48.00;;;;;;5091461;28;20194;-87
2021/04/05 13:20:11;;;;;;;5.35;2.72;;;14.80;47.80;;;;;;5090623;28;20260;-87
2021/04/05 13:22:41;;;;;;;6.43;3.20;;;15.10;47.80;;;;;;5072226;28;20187;-89
2021/04/05 13:25:10;;;;;;;5.60;3.30;;;15.30;47.50;;;;;;5089448;28;20178;-90